sensor_id;sensor_type;location;lat;lon;timestamp;pressure;altitude;pressure_sealevel;temperature;humidity
70902;BME280;58548;47.210;8.618;2023-02-13T00:00:45;95635.91;;;9.52;40.18
70902;BME280;58548;47.210;8.618;2023-02-13T00:03:14;95637.53;;;9.53;39.84
70902;BME280;58548;47.210;8.618;2023-02-13T00:05:42;95714.72;;;10.01;39.76
70902;BME280;58548;47.210;8.618;2023-02-13T00:08:10;95783.78;;;10.45;39.71
70902;BME280;58548;47.210;8.618;2023-02-13T00:10:36;95774.97;;;10.46;40.43
70902;BME280;58548;47.210;8.618;2023-02-13T00:13:02;95749.63;;;10.28;40.09
70902;BME280;58548;47.210;8.618;2023-02-13T00:15:28;95773.63;;;10.41;40.16
70902;BME280;58548;47.210;8.618;2023-02-13T00:17:58;95679.38;;;9.89;39.88
70902;BME280;58548;47.210;8.618;2023-02-13T00:20:24;95785.94;;;10.49;40.08
70902;BME280;58548;47.210;8.618;2023-02-13T00:22:50;95779.09;;;10.48;40.63
70902;BME280;58548;47.210;8.618;2023-02-13T00:25:19;95631.19;;;9.55;40.68
70902;BME280;58548;47.210;8.618;2023-02-13T00:27:44;95655.97;;;9.69;41.30
70902;BME280;58548;47.210;8.618;2023-02-13T00:30:13;95717.44;;;10.09;40.95
70902;BME280;58548;47.210;8.618;2023-02-13T00:32:41;95780.72;;;10.49;40.79
70902;BME280;58548;47.210;8.618;2023-02-13T00:35:07;95787.06;;;10.47;40.65
70902;BME280;58548;47.210;8.618;2023-02-13T00:37:35;95633.13;;;9.53;40.42
70902;BME280;58548;47.210;8.618;2023-02-13T00:40:02;95772.25;;;10.37;40.88
70902;BME280;58548;47.210;8.618;2023-02-13T00:42:28;95779.38;;;10.45;40.99
70902;BME280;58548;47.210;8.618;2023-02-13T00:44:54;95721.69;;;10.10;41.05
70902;BME280;58548;47.210;8.618;2023-02-13T00:47:20;95747.16;;;10.26;40.79
70902;BME280;58548;47.210;8.618;2023-02-13T00:49:51;95755.53;;;10.30;40.84
70902;BME280;58548;47.210;8.618;2023-02-13T00:52:19;95779.31;;;10.55;40.58
70902;BME280;58548;47.210;8.618;2023-02-13T00:54:49;95671.66;;;9.87;40.93
70902;BME280;58548;47.210;8.618;2023-02-13T00:57:15;95792.75;;;10.60;40.79
70902;BME280;58548;47.210;8.618;2023-02-13T00:59:41;95797.69;;;10.63;40.43
70902;BME280;58548;47.210;8.618;2023-02-13T01:02:07;95673.69;;;9.93;40.69
70902;BME280;58548;47.210;8.618;2023-02-13T01:04:33;95796.13;;;10.70;40.77
70902;BME280;58548;47.210;8.618;2023-02-13T01:06:59;95778.19;;;10.58;40.44
70902;BME280;58548;47.210;8.618;2023-02-13T01:09:27;95733.00;;;10.29;41.27
70902;BME280;58548;47.210;8.618;2023-02-13T01:11:53;95692.47;;;9.97;41.00
70902;BME280;58548;47.210;8.618;2023-02-13T01:14:19;95786.56;;;10.61;40.91
70902;BME280;58548;47.210;8.618;2023-02-13T01:16:45;95642.66;;;9.72;40.54
70902;BME280;58548;47.210;8.618;2023-02-13T01:19:11;95657.41;;;9.81;40.97
70902;BME280;58548;47.210;8.618;2023-02-13T01:21:36;95769.16;;;10.52;41.01
70902;BME280;58548;47.210;8.618;2023-02-13T01:24:05;95800.97;;;10.65;40.73
70902;BME280;58548;47.210;8.618;2023-02-13T01:26:34;95663.72;;;9.89;40.77
70902;BME280;58548;47.210;8.618;2023-02-13T01:29:00;95680.72;;;9.93;40.99
70902;BME280;58548;47.210;8.618;2023-02-13T01:31:29;95690.81;;;10.06;40.68
70902;BME280;58548;47.210;8.618;2023-02-13T01:33:56;95673.25;;;9.98;40.44
70902;BME280;58548;47.210;8.618;2023-02-13T01:36:23;95675.19;;;9.96;40.30
70902;BME280;58548;47.210;8.618;2023-02-13T01:38:54;95806.88;;;10.67;40.48
70902;BME280;58548;47.210;8.618;2023-02-13T01:41:24;95795.34;;;10.60;40.90
70902;BME280;58548;47.210;8.618;2023-02-13T01:46:36;95783.31;;;10.49;41.37
70902;BME280;58548;47.210;8.618;2023-02-13T01:49:17;95795.69;;;10.57;40.90
70902;BME280;58548;47.210;8.618;2023-02-13T01:51:48;95793.94;;;10.48;41.48
70902;BME280;58548;47.210;8.618;2023-02-13T01:54:27;95742.81;;;10.17;41.91
70902;BME280;58548;47.210;8.618;2023-02-13T01:57:08;95768.13;;;10.35;41.65
70902;BME280;58548;47.210;8.618;2023-02-13T01:59:43;95781.34;;;10.33;41.35
70902;BME280;58548;47.210;8.618;2023-02-13T02:02:15;95803.25;;;10.50;41.23
70902;BME280;58548;47.210;8.618;2023-02-13T02:04:47;95797.28;;;10.40;41.18
70902;BME280;58548;47.210;8.618;2023-02-13T02:07:19;95811.94;;;10.51;40.97
70902;BME280;58548;47.210;8.618;2023-02-13T02:09:51;95809.31;;;10.51;41.58
70902;BME280;58548;47.210;8.618;2023-02-13T02:12:41;95810.28;;;10.50;41.27
70902;BME280;58548;47.210;8.618;2023-02-13T02:15:08;95760.56;;;10.14;41.70
70902;BME280;58548;47.210;8.618;2023-02-13T02:17:35;95804.00;;;10.43;41.68
70902;BME280;58548;47.210;8.618;2023-02-13T02:34:41;95803.88;;;9.59;41.65
70902;BME280;58548;47.210;8.618;2023-02-13T02:40:14;95803.06;;;9.48;41.72
70902;BME280;58548;47.210;8.618;2023-02-13T02:48:32;95807.38;;;9.30;42.10
70902;BME280;58548;47.210;8.618;2023-02-13T02:51:27;95809.28;;;9.38;41.99
70902;BME280;58548;47.210;8.618;2023-02-13T02:56:37;95795.41;;;9.37;41.72
70902;BME280;58548;47.210;8.618;2023-02-13T02:59:17;95678.38;;;8.67;41.23
70902;BME280;58548;47.210;8.618;2023-02-13T03:02:07;95753.72;;;9.17;41.89
70902;BME280;58548;47.210;8.618;2023-02-13T03:04:57;95742.19;;;9.20;41.62
70902;BME280;58548;47.210;8.618;2023-02-13T03:07:44;95780.56;;;9.47;41.94
70902;BME280;58548;47.210;8.618;2023-02-13T03:10:26;95695.31;;;8.90;41.85
70902;BME280;58548;47.210;8.618;2023-02-13T03:13:45;95690.78;;;8.93;41.50
70902;BME280;58548;47.210;8.618;2023-02-13T03:16:21;95808.25;;;9.68;41.44
70902;BME280;58548;47.210;8.618;2023-02-13T03:19:13;95727.25;;;9.02;41.44
70902;BME280;58548;47.210;8.618;2023-02-13T03:33:13;95830.22;;;9.56;42.21
70902;BME280;58548;47.210;8.618;2023-02-13T03:36:06;95706.03;;;8.87;41.85
70902;BME280;58548;47.210;8.618;2023-02-13T03:46:45;95834.88;;;9.72;41.87
70902;BME280;58548;47.210;8.618;2023-02-13T03:57:33;95804.16;;;9.56;41.80
70902;BME280;58548;47.210;8.618;2023-02-13T04:00:20;95727.69;;;8.98;42.01
70902;BME280;58548;47.210;8.618;2023-02-13T04:03:07;95842.69;;;9.81;42.10
70902;BME280;58548;47.210;8.618;2023-02-13T04:05:45;95832.69;;;9.67;41.97
70902;BME280;58548;47.210;8.618;2023-02-13T04:08:13;95838.16;;;9.74;41.82
70902;BME280;58548;47.210;8.618;2023-02-13T04:10:52;95819.50;;;9.59;41.41
70902;BME280;58548;47.210;8.618;2023-02-13T04:13:35;95850.50;;;9.81;41.30
70902;BME280;58548;47.210;8.618;2023-02-13T04:18:56;95731.25;;;8.97;41.33
70902;BME280;58548;47.210;8.618;2023-02-13T04:21:26;95738.38;;;8.95;41.63
70902;BME280;58548;47.210;8.618;2023-02-13T04:23:52;95750.31;;;8.97;41.27
70902;BME280;58548;47.210;8.618;2023-02-13T04:26:22;95868.25;;;9.68;41.68
70902;BME280;58548;47.210;8.618;2023-02-13T04:28:48;95827.09;;;9.52;41.50
70902;BME280;58548;47.210;8.618;2023-02-13T04:31:14;95730.84;;;8.92;41.39
70902;BME280;58548;47.210;8.618;2023-02-13T04:33:42;95809.25;;;9.47;41.44
70902;BME280;58548;47.210;8.618;2023-02-13T04:36:08;95760.56;;;9.18;41.19
70902;BME280;58548;47.210;8.618;2023-02-13T04:38:36;95828.56;;;9.55;41.39
70902;BME280;58548;47.210;8.618;2023-02-13T04:41:02;95826.28;;;9.52;41.70
70902;BME280;58548;47.210;8.618;2023-02-13T04:43:28;95853.56;;;9.67;41.27
70902;BME280;58548;47.210;8.618;2023-02-13T04:45:54;95824.19;;;9.55;40.72
70902;BME280;58548;47.210;8.618;2023-02-13T04:48:23;95738.38;;;9.04;40.87
70902;BME280;58548;47.210;8.618;2023-02-13T04:50:51;95849.84;;;9.60;41.54
70902;BME280;58548;47.210;8.618;2023-02-13T04:53:17;95740.88;;;8.86;41.49
70902;BME280;58548;47.210;8.618;2023-02-13T04:55:43;95839.97;;;9.54;41.37
70902;BME280;58548;47.210;8.618;2023-02-13T04:58:11;95823.13;;;9.38;41.56
70902;BME280;58548;47.210;8.618;2023-02-13T05:00:37;95854.78;;;9.63;41.57
70902;BME280;58548;47.210;8.618;2023-02-13T05:03:07;95743.03;;;9.01;41.69
70902;BME280;58548;47.210;8.618;2023-02-13T05:05:34;95839.31;;;9.61;41.28
70902;BME280;58548;47.210;8.618;2023-02-13T05:08:04;95818.56;;;9.50;41.42
70902;BME280;58548;47.210;8.618;2023-02-13T05:10:30;95859.06;;;9.64;41.70
70902;BME280;58548;47.210;8.618;2023-02-13T05:12:56;95638.03;;;8.32;41.58
70902;BME280;58548;47.210;8.618;2023-02-13T05:15:26;95858.88;;;9.75;41.39
70902;BME280;58548;47.210;8.618;2023-02-13T05:17:53;95847.09;;;9.71;40.92
70902;BME280;58548;47.210;8.618;2023-02-13T05:20:21;95837.63;;;9.70;41.06
70902;BME280;58548;47.210;8.618;2023-02-13T05:22:52;95731.66;;;9.02;41.05
70902;BME280;58548;47.210;8.618;2023-02-13T05:25:38;95760.97;;;9.24;41.17
70902;BME280;58548;47.210;8.618;2023-02-13T05:28:05;95860.09;;;9.91;40.88
70902;BME280;58548;47.210;8.618;2023-02-13T05:30:56;95849.94;;;9.88;41.53
70902;BME280;58548;47.210;8.618;2023-02-13T05:33:22;95730.41;;;9.16;40.65
70902;BME280;58548;47.210;8.618;2023-02-13T05:35:51;95716.56;;;9.05;41.03
70902;BME280;58548;47.210;8.618;2023-02-13T05:38:19;95727.94;;;9.14;40.72
70902;BME280;58548;47.210;8.618;2023-02-13T05:40:45;95843.91;;;9.77;40.45
70902;BME280;58548;47.210;8.618;2023-02-13T05:43:14;95864.50;;;9.90;40.53
70902;BME280;58548;47.210;8.618;2023-02-13T05:45:44;95837.72;;;9.78;40.27
70902;BME280;58548;47.210;8.618;2023-02-13T05:48:10;95760.03;;;9.25;40.28
70902;BME280;58548;47.210;8.618;2023-02-13T05:50:40;95746.31;;;9.23;40.32
70902;BME280;58548;47.210;8.618;2023-02-13T05:53:08;95767.28;;;9.31;40.54
70902;BME280;58548;47.210;8.618;2023-02-13T05:55:34;95758.94;;;9.17;40.72
70902;BME280;58548;47.210;8.618;2023-02-13T05:58:02;95867.97;;;9.81;40.92
70902;BME280;58548;47.210;8.618;2023-02-13T06:00:33;95870.16;;;9.76;40.30
70902;BME280;58548;47.210;8.618;2023-02-13T06:02:59;95767.31;;;9.21;40.29
70902;BME280;58548;47.210;8.618;2023-02-13T06:05:25;95751.97;;;9.08;40.13
70902;BME280;58548;47.210;8.618;2023-02-13T06:07:55;95777.31;;;9.16;40.31
70902;BME280;58548;47.210;8.618;2023-02-13T06:10:21;95868.94;;;9.70;40.81
70902;BME280;58548;47.210;8.618;2023-02-13T06:12:47;95755.13;;;8.92;40.40
70902;BME280;58548;47.210;8.618;2023-02-13T06:15:15;95863.06;;;9.58;39.64
70902;BME280;58548;47.210;8.618;2023-02-13T06:17:41;95745.81;;;8.89;40.15
70902;BME280;58548;47.210;8.618;2023-02-13T06:20:09;95845.63;;;9.49;40.26
70902;BME280;58548;47.210;8.618;2023-02-13T06:22:35;95767.72;;;8.97;40.17
70902;BME280;58548;47.210;8.618;2023-02-13T06:25:04;95833.28;;;9.41;39.95
70902;BME280;58548;47.210;8.618;2023-02-13T06:27:30;95867.31;;;9.59;40.42
70902;BME280;58548;47.210;8.618;2023-02-13T06:29:56;95763.91;;;8.91;40.06
70902;BME280;58548;47.210;8.618;2023-02-13T06:32:24;95861.69;;;9.54;39.95
70902;BME280;58548;47.210;8.618;2023-02-13T06:34:52;95788.31;;;9.00;40.37
70902;BME280;58548;47.210;8.618;2023-02-13T06:37:20;95839.88;;;9.35;40.03
70902;BME280;58548;47.210;8.618;2023-02-13T06:39:46;95759.38;;;8.83;40.41
70902;BME280;58548;47.210;8.618;2023-02-13T06:42:12;95873.50;;;9.48;40.09
70902;BME280;58548;47.210;8.618;2023-02-13T06:44:41;95878.28;;;9.53;40.41
70902;BME280;58548;47.210;8.618;2023-02-13T06:47:09;95887.06;;;9.62;40.23
70902;BME280;58548;47.210;8.618;2023-02-13T06:49:37;95886.78;;;9.55;40.30
70902;BME280;58548;47.210;8.618;2023-02-13T06:52:03;95894.75;;;9.63;40.05
70902;BME280;58548;47.210;8.618;2023-02-13T06:54:29;95769.38;;;8.88;40.07
70902;BME280;58548;47.210;8.618;2023-02-13T06:56:55;95894.19;;;9.60;40.01
70902;BME280;58548;47.210;8.618;2023-02-13T06:59:23;95813.56;;;9.09;40.46
70902;BME280;58548;47.210;8.618;2023-02-13T07:01:51;95905.03;;;9.65;40.19
70902;BME280;58548;47.210;8.618;2023-02-13T07:04:19;95878.13;;;9.55;40.25
70902;BME280;58548;47.210;8.618;2023-02-13T07:06:45;95803.94;;;9.10;40.13
70902;BME280;58548;47.210;8.618;2023-02-13T07:09:11;95870.63;;;9.52;40.07
70902;BME280;58548;47.210;8.618;2023-02-13T07:11:41;95771.84;;;8.89;40.24
70902;BME280;58548;47.210;8.618;2023-02-13T07:14:09;95765.81;;;8.79;40.50
70902;BME280;58548;47.210;8.618;2023-02-13T07:16:35;95910.00;;;9.68;40.12
70902;BME280;58548;47.210;8.618;2023-02-13T07:19:03;95910.94;;;9.67;40.76
70902;BME280;58548;47.210;8.618;2023-02-13T07:21:29;95884.72;;;9.59;40.08
70902;BME280;58548;47.210;8.618;2023-02-13T07:23:55;95903.81;;;9.69;40.35
70902;BME280;58548;47.210;8.618;2023-02-13T07:26:21;95904.06;;;9.76;40.80
70902;BME280;58548;47.210;8.618;2023-02-13T07:28:47;95901.06;;;9.71;40.29
70902;BME280;58548;47.210;8.618;2023-02-13T07:31:13;95909.81;;;9.79;40.46
70902;BME280;58548;47.210;8.618;2023-02-13T07:33:39;95836.84;;;9.40;40.47
70902;BME280;58548;47.210;8.618;2023-02-13T07:36:07;95890.88;;;9.77;40.56
70902;BME280;58548;47.210;8.618;2023-02-13T07:38:35;95882.94;;;9.69;40.33
70902;BME280;58548;47.210;8.618;2023-02-13T07:41:03;95906.66;;;9.95;39.98
70902;BME280;58548;47.210;8.618;2023-02-13T07:43:29;95898.84;;;9.86;39.95
70902;BME280;58548;47.210;8.618;2023-02-13T07:46:01;95920.38;;;9.98;40.06
70902;BME280;58548;47.210;8.618;2023-02-13T07:48:32;95813.38;;;9.30;40.00
70902;BME280;58548;47.210;8.618;2023-02-13T07:51:00;95897.31;;;9.93;39.74
70902;BME280;58548;47.210;8.618;2023-02-13T07:53:26;95801.56;;;9.36;40.30
70902;BME280;58548;47.210;8.618;2023-02-13T07:55:52;95910.63;;;10.09;40.11
70902;BME280;58548;47.210;8.618;2023-02-13T07:58:20;95790.44;;;9.44;40.33
70902;BME280;58548;47.210;8.618;2023-02-13T08:00:48;95839.78;;;9.85;40.26
70902;BME280;58548;47.210;8.618;2023-02-13T08:03:19;95908.06;;;10.37;40.09
70902;BME280;58548;47.210;8.618;2023-02-13T08:05:47;95918.34;;;10.49;39.98
70902;BME280;58548;47.210;8.618;2023-02-13T08:08:16;95921.59;;;10.61;39.90
70902;BME280;58548;47.210;8.618;2023-02-13T08:10:44;95835.19;;;10.06;40.22
70902;BME280;58548;47.210;8.618;2023-02-13T08:13:29;95889.66;;;10.29;40.31
70902;BME280;58548;47.210;8.618;2023-02-13T08:15:57;95926.03;;;10.50;40.49
70902;BME280;58548;47.210;8.618;2023-02-13T08:18:31;95899.03;;;10.22;39.74
70902;BME280;58548;47.210;8.618;2023-02-13T08:20:56;95935.00;;;10.38;40.42
70902;BME280;58548;47.210;8.618;2023-02-13T08:23:22;95817.16;;;9.65;40.02
70902;BME280;58548;47.210;8.618;2023-02-13T08:25:57;95915.25;;;10.25;40.00
70902;BME280;58548;47.210;8.618;2023-02-13T08:28:23;95911.94;;;10.23;40.47
70902;BME280;58548;47.210;8.618;2023-02-13T08:30:49;95927.31;;;10.36;40.61
70902;BME280;58548;47.210;8.618;2023-02-13T08:33:15;95923.72;;;10.37;40.46
70902;BME280;58548;47.210;8.618;2023-02-13T08:35:41;95914.09;;;10.48;40.59
70902;BME280;58548;47.210;8.618;2023-02-13T08:38:10;95818.44;;;9.99;40.53
70902;BME280;58548;47.210;8.618;2023-02-13T08:40:36;95789.78;;;9.89;39.90
70902;BME280;58548;47.210;8.618;2023-02-13T08:43:06;95915.38;;;10.71;40.62
70902;BME280;58548;47.210;8.618;2023-02-13T08:45:33;95826.59;;;10.24;39.76
70902;BME280;58548;47.210;8.618;2023-02-13T08:47:59;95913.66;;;10.80;39.66
70902;BME280;58548;47.210;8.618;2023-02-13T08:50:28;95883.63;;;10.66;39.97
70902;BME280;58548;47.210;8.618;2023-02-13T08:52:54;95912.53;;;10.83;39.70
70902;BME280;58548;47.210;8.618;2023-02-13T08:55:22;95874.72;;;10.59;39.33
70902;BME280;58548;47.210;8.618;2023-02-13T08:57:53;95885.53;;;10.64;39.90
70902;BME280;58548;47.210;8.618;2023-02-13T09:00:19;95929.28;;;10.90;39.77
70902;BME280;58548;47.210;8.618;2023-02-13T09:02:50;95912.75;;;10.99;39.32
70902;BME280;58548;47.210;8.618;2023-02-13T09:05:18;95873.03;;;10.68;39.71
70902;BME280;58548;47.210;8.618;2023-02-13T09:07:44;95913.03;;;10.96;39.74
70902;BME280;58548;47.210;8.618;2023-02-13T09:10:13;95860.16;;;10.56;39.42
70902;BME280;58548;47.210;8.618;2023-02-13T09:12:41;95932.94;;;11.07;39.73
70902;BME280;58548;47.210;8.618;2023-02-13T09:15:10;95902.66;;;11.05;39.82
70902;BME280;58548;47.210;8.618;2023-02-13T09:17:36;95915.59;;;11.24;39.09
70902;BME280;58548;47.210;8.618;2023-02-13T09:20:01;95901.63;;;11.15;38.98
70902;BME280;58548;47.210;8.618;2023-02-13T09:22:27;95923.25;;;11.36;39.28
70902;BME280;58548;47.210;8.618;2023-02-13T09:24:58;95822.03;;;10.82;39.47
70902;BME280;58548;47.210;8.618;2023-02-13T09:27:33;95925.72;;;11.55;39.33
70902;BME280;58548;47.210;8.618;2023-02-13T09:30:08;95939.22;;;11.69;39.55
70902;BME280;58548;47.210;8.618;2023-02-13T09:32:35;95927.47;;;11.73;39.25
70902;BME280;58548;47.210;8.618;2023-02-13T09:35:05;95944.63;;;11.85;39.55
70902;BME280;58548;47.210;8.618;2023-02-13T09:37:31;95854.41;;;11.35;38.75
70902;BME280;58548;47.210;8.618;2023-02-13T09:39:57;95941.38;;;12.10;38.33
70902;BME280;58548;47.210;8.618;2023-02-13T09:42:30;95950.00;;;12.02;38.78
70902;BME280;58548;47.210;8.618;2023-02-13T09:45:05;95938.25;;;12.06;38.28
70902;BME280;58548;47.210;8.618;2023-02-13T09:47:39;95953.88;;;12.16;38.36
70902;BME280;58548;47.210;8.618;2023-02-13T09:50:20;95951.34;;;12.06;38.56
70902;BME280;58548;47.210;8.618;2023-02-13T09:52:50;95822.78;;;11.28;38.01
70902;BME280;58548;47.210;8.618;2023-02-13T10:01:02;95937.53;;;12.22;38.21
70902;BME280;58548;47.210;8.618;2023-02-13T10:03:33;95834.84;;;11.66;38.03
70902;BME280;58548;47.210;8.618;2023-02-13T10:06:19;95940.09;;;12.40;37.76
70902;BME280;58548;47.210;8.618;2023-02-13T10:09:11;95831.69;;;11.80;37.82
70902;BME280;58548;47.210;8.618;2023-02-13T10:11:59;95945.16;;;12.42;37.29
70902;BME280;58548;47.210;8.618;2023-02-13T10:15:14;95931.88;;;12.35;37.87
70902;BME280;58548;47.210;8.618;2023-02-13T10:18:14;95897.94;;;12.25;37.56
70902;BME280;58548;47.210;8.618;2023-02-13T10:26:20;95858.88;;;12.40;36.98
70902;BME280;58548;47.210;8.618;2023-02-13T10:29:06;95842.44;;;12.30;36.94
70902;BME280;58548;47.210;8.618;2023-02-13T10:31:57;95824.56;;;12.17;36.80
70902;BME280;58548;47.210;8.618;2023-02-13T10:34:35;95937.47;;;13.09;36.26
70902;BME280;58548;47.210;8.618;2023-02-13T10:37:17;95832.41;;;12.60;36.58
70902;BME280;58548;47.210;8.618;2023-02-13T10:39:51;95932.28;;;13.34;36.65
70902;BME280;58548;47.210;8.618;2023-02-13T10:48:18;95927.25;;;13.57;36.03
70902;BME280;58548;47.210;8.618;2023-02-13T10:56:15;95918.88;;;13.87;35.60
70902;BME280;58548;47.210;8.618;2023-02-13T11:01:38;95788.59;;;13.36;34.91
70902;BME280;58548;47.210;8.618;2023-02-13T11:04:12;95802.72;;;13.60;34.99
70902;BME280;58548;47.210;8.618;2023-02-13T11:09:15;95898.41;;;14.47;34.44
70902;BME280;58548;47.210;8.618;2023-02-13T11:11:42;95833.16;;;14.11;33.87
70902;BME280;58548;47.210;8.618;2023-02-13T11:14:28;95798.34;;;14.17;34.17
70902;BME280;58548;47.210;8.618;2023-02-13T11:17:19;95883.56;;;14.71;33.83
70902;BME280;58548;47.210;8.618;2023-02-13T11:19:53;95778.50;;;14.06;34.00
70902;BME280;58548;47.210;8.618;2023-02-13T11:22:29;95894.00;;;14.96;33.15
70902;BME280;58548;47.210;8.618;2023-02-13T11:25:05;95890.16;;;15.06;33.20
70902;BME280;58548;47.210;8.618;2023-02-13T11:27:35;95891.28;;;15.12;32.91
70902;BME280;58548;47.210;8.618;2023-02-13T11:30:29;95892.13;;;15.04;32.95
70902;BME280;58548;47.210;8.618;2023-02-13T11:33:26;95794.56;;;14.51;33.19
70902;BME280;58548;47.210;8.618;2023-02-13T11:36:09;95878.75;;;15.14;33.19
70902;BME280;58548;47.210;8.618;2023-02-13T11:38:40;95888.84;;;15.34;32.81
70902;BME280;58548;47.210;8.618;2023-02-13T11:41:12;95786.25;;;14.79;33.23
70902;BME280;58548;47.210;8.618;2023-02-13T11:43:49;95890.00;;;15.55;32.91
70902;BME280;58548;47.210;8.618;2023-02-13T11:46:18;95884.59;;;15.71;32.79
70902;BME280;58548;47.210;8.618;2023-02-13T11:49:16;95894.56;;;16.07;33.02
70902;BME280;58548;47.210;8.618;2023-02-13T11:54:41;95893.50;;;17.50;32.30
70902;BME280;58548;47.210;8.618;2023-02-13T11:59:48;95822.09;;;19.06;29.59
70902;BME280;58548;47.210;8.618;2023-02-13T12:04:53;95886.31;;;20.83;26.69
70902;BME280;58548;47.210;8.618;2023-02-13T12:10:06;95791.44;;;21.03;25.12
70902;BME280;58548;47.210;8.618;2023-02-13T12:15:27;95799.19;;;21.05;24.82
70902;BME280;58548;47.210;8.618;2023-02-13T12:23:24;95812.25;;;21.96;23.96
70902;BME280;58548;47.210;8.618;2023-02-13T12:26:14;95863.41;;;22.98;23.08
70902;BME280;58548;47.210;8.618;2023-02-13T12:37:25;95863.69;;;25.58;20.29
70902;BME280;58548;47.210;8.618;2023-02-13T12:45:48;95769.44;;;26.46;19.59
70902;BME280;58548;47.210;8.618;2023-02-13T12:53:45;95769.19;;;27.47;18.17
70902;BME280;58548;47.210;8.618;2023-02-13T12:56:30;95778.56;;;27.82;17.52
70902;BME280;58548;47.210;8.618;2023-02-13T13:04:40;95841.66;;;29.34;16.14
70902;BME280;58548;47.210;8.618;2023-02-13T13:10:01;95838.78;;;29.98;16.03
70902;BME280;58548;47.210;8.618;2023-02-13T13:18:26;95839.50;;;30.50;14.91
70902;BME280;58548;47.210;8.618;2023-02-13T13:21:16;95746.41;;;29.98;14.90
70902;BME280;58548;47.210;8.618;2023-02-13T13:26:41;95828.63;;;30.81;14.41
70902;BME280;58548;47.210;8.618;2023-02-13T13:31:52;95819.78;;;30.71;14.11
70902;BME280;58548;47.210;8.618;2023-02-13T13:34:27;95770.03;;;30.27;14.35
70902;BME280;58548;47.210;8.618;2023-02-13T13:50:44;95797.03;;;30.92;13.84
70902;BME280;58548;47.210;8.618;2023-02-13T13:53:18;95736.25;;;30.60;13.95
70902;BME280;58548;47.210;8.618;2023-02-13T13:58:49;95822.84;;;31.09;13.92
70902;BME280;58548;47.210;8.618;2023-02-13T14:04:35;95815.81;;;31.13;13.64
70902;BME280;58548;47.210;8.618;2023-02-13T14:11:56;95754.34;;;30.44;13.37
70902;BME280;58548;47.210;8.618;2023-02-13T14:17:02;95812.56;;;30.45;13.58
70902;BME280;58548;47.210;8.618;2023-02-13T14:19:35;95815.03;;;30.31;13.95
70902;BME280;58548;47.210;8.618;2023-02-13T14:27:22;95812.09;;;29.50;14.36
70902;BME280;58548;47.210;8.618;2023-02-13T14:29:49;95807.19;;;29.26;14.96
70902;BME280;58548;47.210;8.618;2023-02-13T14:32:24;95778.88;;;28.87;15.18
70902;BME280;58548;47.210;8.618;2023-02-13T14:35:02;95726.25;;;28.33;15.32
70902;BME280;58548;47.210;8.618;2023-02-13T14:37:37;95719.56;;;27.88;15.23
70902;BME280;58548;47.210;8.618;2023-02-13T14:40:29;95802.44;;;28.11;15.78
70902;BME280;58548;47.210;8.618;2023-02-13T14:43:20;95812.50;;;27.99;16.29
70902;BME280;58548;47.210;8.618;2023-02-13T14:46:02;95733.78;;;27.18;15.67
70902;BME280;58548;47.210;8.618;2023-02-13T14:48:58;95800.88;;;27.50;16.25
70902;BME280;58548;47.210;8.618;2023-02-13T14:51:37;95695.84;;;26.54;16.58
70902;BME280;58548;47.210;8.618;2023-02-13T14:54:27;95717.19;;;26.44;16.98
70902;BME280;58548;47.210;8.618;2023-02-13T14:59:33;95797.53;;;26.44;16.86
70902;BME280;58548;47.210;8.618;2023-02-13T15:02:17;95818.25;;;26.31;17.42
70902;BME280;58548;47.210;8.618;2023-02-13T15:04:53;95763.88;;;25.74;17.67
70902;BME280;58548;47.210;8.618;2023-02-13T15:07:24;95715.69;;;25.06;18.32
70902;BME280;58548;47.210;8.618;2023-02-13T15:09:58;95805.09;;;25.27;18.49
70902;BME280;58548;47.210;8.618;2023-02-13T15:12:32;95796.19;;;24.93;19.26
70902;BME280;58548;47.210;8.618;2023-02-13T15:15:25;95805.69;;;24.48;19.61
70902;BME280;58548;47.210;8.618;2023-02-13T15:18:08;95793.28;;;23.94;19.89
70902;BME280;58548;47.210;8.618;2023-02-13T15:20:42;95690.06;;;22.81;20.90
70902;BME280;58548;47.210;8.618;2023-02-13T15:23:19;95692.00;;;22.43;20.80
70902;BME280;58548;47.210;8.618;2023-02-13T15:25:56;95662.53;;;21.89;21.77
70902;BME280;58548;47.210;8.618;2023-02-13T15:28:29;95675.09;;;21.63;21.97
70902;BME280;58548;47.210;8.618;2023-02-13T15:31:04;95792.88;;;22.07;22.39
70902;BME280;58548;47.210;8.618;2023-02-13T15:33:43;95688.22;;;21.07;22.77
70902;BME280;58548;47.210;8.618;2023-02-13T15:36:21;95788.22;;;21.27;23.10
70902;BME280;58548;47.210;8.618;2023-02-13T15:39:01;95770.44;;;20.95;23.83
70902;BME280;58548;47.210;8.618;2023-02-13T15:41:38;95778.69;;;20.73;24.15
70902;BME280;58548;47.210;8.618;2023-02-13T15:44:06;95784.97;;;20.40;24.46
70902;BME280;58548;47.210;8.618;2023-02-13T15:46:34;95759.34;;;20.00;24.89
70902;BME280;58548;47.210;8.618;2023-02-13T15:49:08;95666.09;;;19.18;24.82
70902;BME280;58548;47.210;8.618;2023-02-13T15:51:38;95763.06;;;19.46;25.48
70902;BME280;58548;47.210;8.618;2023-02-13T15:54:18;95711.25;;;18.82;25.98
70902;BME280;58548;47.210;8.618;2023-02-13T15:56:47;95770.25;;;18.69;27.11
70902;BME280;58548;47.210;8.618;2023-02-13T15:59:20;95751.78;;;18.28;26.91
70902;BME280;58548;47.210;8.618;2023-02-13T16:01:50;95672.41;;;17.44;27.64
70902;BME280;58548;47.210;8.618;2023-02-13T16:04:19;95695.94;;;17.39;27.49
70902;BME280;58548;47.210;8.618;2023-02-13T16:06:53;95751.84;;;17.42;28.39
70902;BME280;58548;47.210;8.618;2023-02-13T16:09:25;95735.09;;;17.07;28.56
70902;BME280;58548;47.210;8.618;2023-02-13T16:11:56;95675.47;;;16.32;29.20
70902;BME280;58548;47.210;8.618;2023-02-13T16:14:27;95779.56;;;16.88;29.40
70902;BME280;58548;47.210;8.618;2023-02-13T16:19:31;95762.38;;;16.40;30.07
70902;BME280;58548;47.210;8.618;2023-02-13T16:22:32;95784.19;;;16.34;30.29
70902;BME280;58548;47.210;8.618;2023-02-13T16:27:50;95728.19;;;15.57;30.61
70902;BME280;58548;47.210;8.618;2023-02-13T16:30:39;95779.59;;;15.68;30.99
70902;BME280;58548;47.210;8.618;2023-02-13T16:33:16;95777.69;;;15.47;31.52
70902;BME280;58548;47.210;8.618;2023-02-13T16:35:51;95784.25;;;15.28;31.34
70902;BME280;58548;47.210;8.618;2023-02-13T16:44:01;95670.53;;;13.93;32.41